This is the latest recevied weather packets stored in our database for station/object K8DJB-1. If no packets are shown the sender has not sent any weather packets the latest 10 day(s).
| Time | Temp. | Humidity | Pressure | Rain* | Wind** | Luminosity | Snow |
|---|---|---|---|---|---|---|---|
| 1787762909 | 25° C | 68% | 1010.9 hPa | 0 mm | - | - | - |
| 1787762609 | 25° C | 67% | 1010.7 hPa | 0 mm | - | - | - |
| 1787762309 | 25° C | 66% | 1010.7 hPa | 0 mm | - | - | - |
| 1787762009 | 25° C | 66% | 1010.8 hPa | 0 mm | - | - | - |
| 1787761709 | 24.44° C | 67% | 1011.1 hPa | 0 mm | - | - | - |
| 1787761409 | 24.44° C | 67% | 1011.2 hPa | 0 mm | - | - | - |
| 1787761108 | 23.89° C | 68% | 1011.3 hPa | 0 mm | - | - | - |
| 1787760809 | 23.89° C | 68% | 1011.3 hPa | 0 mm | - | - | - |
| 1787760509 | 23.89° C | 67% | 1011.5 hPa | 0 mm | - | - | - |
| 1787760209 | 23.89° C | 68% | 1011.5 hPa | 0 mm | - | - | - |
| 1787759909 | 23.89° C | 67% | 1011.6 hPa | 0 mm | - | - | - |
| 1787759609 | 23.89° C | 67% | 1011.6 hPa | 0 mm | - | - | - |
| 1787759309 | 23.89° C | 66% | 1011.6 hPa | 0 mm | - | - | - |
| 1787759009 | 23.89° C | 65% | 1011.6 hPa | 0 mm | - | - | - |
| 1787758470 | 24.44° C | 63% | 1011.6 hPa | 0 mm | - | - | - |
| 1787758170 | 24.44° C | 64% | 1011.6 hPa | 0 mm | - | - | - |
| 1787757870 | 23.89° C | 64% | 1011.6 hPa | 0 mm | - | - | - |
| 1787757570 | 23.89° C | 65% | 1011.6 hPa | 0 mm | - | - | - |
| 1787757271 | 23.89° C | 64% | 1011.6 hPa | 0 mm | - | - | - |
| 1787756672 | 23.33° C | 67% | 1011.4 hPa | 0 mm | - | - | - |
| 1787756370 | 22.78° C | 68% | 1011.6 hPa | 0 mm | - | - | - |
| 1787756070 | 22.78° C | 68% | 1011.6 hPa | 0 mm | - | - | - |
| 1787755770 | 22.22° C | 69% | 1011.6 hPa | 0 mm | - | - | - |
| 1787755470 | 22.22° C | 69% | 1011.6 hPa | 0 mm | - | - | - |
| 1787755172 | 21.67° C | 71% | 1011.7 hPa | 0 mm | - | - | - |
* Rain latest hour (hover to see other rain measurements)
** Current wind speed in m/s (hover to see current wind gust speed)